Time;durP1;ratioP1;P1;durP2;ratioP2;P2;SDS_P1;SDS_P2;PMS_P1;PMS_P2;Temp;Humidity;BMP_temperature;BMP_pressure;BME280_temperature;BME280_humidity;BME280_pressure;Samples;Min_cycle;Max_cycle;Signal;HPM_P1;HPM_P2
2022/02/11 00:07:37;;;;;;;9.87;3.13;;;;;;;;;;10346311;28;20049;-70
2022/02/11 00:12:40;;;;;;;9.00;3.10;;;;;;;;;;10352920;28;20099;-70
2022/02/11 00:17:45;;;;;;;11.97;4.83;;;;;;;;;;10350277;28;20054;-69
2022/02/11 00:22:49;;;;;;;7.25;2.72;;;;;;;;;;10361111;28;20172;-69
2022/02/11 00:28:44;;;;;;;11.97;4.03;;;;;;;;;;10349528;28;20153;-69
2022/02/11 00:33:38;;;;;;;6.40;2.70;;;;;;;;;;10350062;28;20062;-69
2022/02/11 00:38:58;;;;;;;9.73;2.55;;;;;;;;;;10347528;28;20196;-70
2022/02/11 01:05:34;;;;;;;10.33;3.33;;;;;;;;;;10345969;28;20455;-70
2022/02/11 01:10:37;;;;;;;10.23;4.03;;;;;;;;;;10356269;28;20505;-70
2022/02/11 01:15:45;;;;;;;7.27;2.33;;;;;;;;;;10351225;28;20045;-69
2022/02/11 01:20:55;;;;;;;8.00;4.28;;;;;;;;;;10349962;28;20136;-69
2022/02/11 01:26:14;;;;;;;13.77;3.80;;;;;;;;;;10349644;28;20068;-71
2022/02/11 01:31:24;;;;;;;7.05;3.67;;;;;;;;;;10359640;28;20414;-70
2022/02/11 01:47:42;;;;;;;9.95;3.45;;;;;;;;;;10298498;28;20050;-70
2022/02/11 01:53:17;;;;;;;15.30;3.60;;;;;;;;;;10410975;22;20030;-72
2022/02/11 01:58:52;;;;;;;9.83;3.57;;;;;;;;;;10443311;28;20445;-71
2022/02/11 02:25:26;;;;;;;12.85;4.63;;;;;;;;;;10334057;28;20045;-72
2022/02/11 02:36:19;;;;;;;8.60;3.33;;;;;;;;;;10365666;28;20038;-71
2022/02/11 02:57:37;;;;;;;7.53;2.80;;;;;;;;;;10367364;28;20037;-72
2022/02/11 03:34:56;;;;;;;6.70;2.87;;;;;;;;;;10359180;28;20034;-72
2022/02/11 03:51:13;;;;;;;7.07;2.63;;;;;;;;;;10379711;22;20053;-74
2022/02/11 04:23:27;;;;;;;4.70;1.80;;;;;;;;;;10368493;28;20042;-76
2022/02/11 04:55:36;;;;;;;2.03;0.97;;;;;;;;;;10360375;28;20104;-74
2022/02/11 05:00:39;;;;;;;3.23;1.57;;;;;;;;;;10349977;28;20072;-74
2022/02/11 05:05:50;;;;;;;4.57;1.67;;;;;;;;;;10365089;28;20061;-75
2022/02/11 05:10:54;;;;;;;3.13;1.40;;;;;;;;;;10363185;28;20038;-76
2022/02/11 05:15:57;;;;;;;3.28;1.85;;;;;;;;;;10363190;28;20035;-75
2022/02/11 05:21:02;;;;;;;4.13;1.48;;;;;;;;;;10370275;28;20038;-75
2022/02/11 05:26:05;;;;;;;1.50;0.97;;;;;;;;;;10376604;28;20038;-75
2022/02/11 05:31:08;;;;;;;3.87;2.30;;;;;;;;;;10361421;28;20398;-75
2022/02/11 05:36:13;;;;;;;3.40;1.80;;;;;;;;;;10363323;28;20443;-75
2022/02/11 05:41:16;;;;;;;3.33;1.27;;;;;;;;;;10362531;28;20141;-74
2022/02/11 05:46:20;;;;;;;2.90;1.60;;;;;;;;;;10359644;28;20445;-72
2022/02/11 05:51:25;;;;;;;7.25;2.88;;;;;;;;;;10373578;28;20053;-73
2022/02/11 05:56:28;;;;;;;2.70;1.60;;;;;;;;;;10366846;28;20514;-75
2022/02/11 06:01:31;;;;;;;5.83;3.40;;;;;;;;;;10372801;28;20034;-73
2022/02/11 06:06:36;;;;;;;8.83;3.63;;;;;;;;;;10366011;28;20044;-76
2022/02/11 06:11:39;;;;;;;5.10;2.07;;;;;;;;;;10375106;28;20062;-78
2022/02/11 06:16:42;;;;;;;2.07;1.20;;;;;;;;;;10367606;28;20393;-75
2022/02/11 06:21:47;;;;;;;8.23;3.00;;;;;;;;;;10373735;28;20042;-76
2022/02/11 06:26:50;;;;;;;8.37;2.80;;;;;;;;;;10363999;28;20088;-76
2022/02/11 06:31:53;;;;;;;7.70;3.30;;;;;;;;;;10365272;28;20478;-74
2022/02/11 06:36:57;;;;;;;10.17;3.27;;;;;;;;;;10359438;28;20038;-75
2022/02/11 06:42:02;;;;;;;6.73;2.90;;;;;;;;;;10362646;28;20041;-72
2022/02/11 06:47:06;;;;;;;6.93;2.70;;;;;;;;;;10361177;28;20042;-74
2022/02/11 06:52:11;;;;;;;4.43;1.85;;;;;;;;;;10362748;28;20042;-74
2022/02/11 06:57:14;;;;;;;2.70;1.30;;;;;;;;;;10366040;28;20038;-73
2022/02/11 07:02:19;;;;;;;2.93;1.27;;;;;;;;;;10356130;28;20391;-73
2022/02/11 07:07:23;;;;;;;6.53;2.03;;;;;;;;;;10358182;28;20493;-73
2022/02/11 07:12:27;;;;;;;3.23;1.70;;;;;;;;;;10366590;28;20041;-72
2022/02/11 07:17:31;;;;;;;3.40;1.73;;;;;;;;;;10368923;28;20501;-74
2022/02/11 07:22:35;;;;;;;2.20;1.33;;;;;;;;;;10358310;28;20496;-74
2022/02/11 07:27:40;;;;;;;4.63;2.10;;;;;;;;;;10358244;28;20410;-74
2022/02/11 07:33:03;;;;;;;3.30;1.47;;;;;;;;;;10355779;28;20065;-74
2022/02/11 07:38:07;;;;;;;4.13;1.43;;;;;;;;;;10354204;28;20081;-74
2022/02/11 07:43:10;;;;;;;2.63;1.73;;;;;;;;;;10352281;28;20095;-74
2022/02/11 07:48:33;;;;;;;3.80;1.83;;;;;;;;;;10357288;28;20046;-74
2022/02/11 07:53:38;;;;;;;3.35;1.48;;;;;;;;;;10389228;23;20130;-72
2022/02/11 07:58:42;;;;;;;2.27;1.60;;;;;;;;;;10434499;28;20326;-71
2022/02/11 08:03:45;;;;;;;1.80;0.80;;;;;;;;;;10423191;28;20041;-71
2022/02/11 08:08:52;;;;;;;3.30;1.77;;;;;;;;;;10400634;28;20113;-70
2022/02/11 08:13:55;;;;;;;3.63;1.70;;;;;;;;;;10427836;28;20037;-71
2022/02/11 08:18:58;;;;;;;1.30;0.97;;;;;;;;;;10408087;28;20119;-70
2022/02/11 08:24:02;;;;;;;1.80;0.57;;;;;;;;;;10403589;28;20057;-70
2022/02/11 08:29:08;;;;;;;;;;;;;;;;;;10397949;28;20041;-71
2022/02/11 08:34:11;;;;;;;2.33;1.03;;;;;;;;;;10394077;28;19929;-71
2022/02/11 08:39:15;;;;;;;1.97;0.87;;;;;;;;;;10396056;28;20044;-71
2022/02/11 08:44:18;;;;;;;0.83;0.83;;;;;;;;;;10395590;28;20076;-69
2022/02/11 08:49:21;;;;;;;2.13;0.97;;;;;;;;;;10395834;28;20240;-69
2022/02/11 08:54:25;;;;;;;1.73;1.00;;;;;;;;;;10395530;28;20039;-70
2022/02/11 08:59:29;;;;;;;2.40;0.93;;;;;;;;;;10405463;28;20040;-70
2022/02/11 09:04:32;;;;;;;3.47;1.23;;;;;;;;;;10406848;28;20076;-71
2022/02/11 09:09:39;;;;;;;3.57;1.50;;;;;;;;;;10406907;28;20076;-70
2022/02/11 09:14:42;;;;;;;2.03;1.00;;;;;;;;;;10407987;28;20034;-70
2022/02/11 09:19:47;;;;;;;1.77;1.20;;;;;;;;;;10422534;28;20045;-70
2022/02/11 09:24:54;;;;;;;2.25;1.52;;;;;;;;;;10411398;28;20105;-72
2022/02/11 09:29:57;;;;;;;0.88;0.68;;;;;;;;;;10421378;28;20521;-70
2022/02/11 09:35:00;;;;;;;1.80;0.90;;;;;;;;;;10402984;28;20484;-71
2022/02/11 09:40:06;;;;;;;2.22;1.48;;;;;;;;;;10402451;28;20047;-70
2022/02/11 09:45:10;;;;;;;0.68;0.68;;;;;;;;;;10400528;28;20427;-70
2022/02/11 09:50:13;;;;;;;2.17;0.80;;;;;;;;;;10406497;28;20509;-71
2022/02/11 09:55:36;;;;;;;0.95;0.77;;;;;;;;;;10400335;28;20068;-70
2022/02/11 10:00:40;;;;;;;1.02;0.95;;;;;;;;;;10395336;28;20126;-72
2022/02/11 10:05:46;;;;;;;1.05;0.90;;;;;;;;;;10406864;28;20034;-70
2022/02/11 10:10:52;;;;;;;1.77;0.98;;;;;;;;;;10401914;28;20091;-69
2022/02/11 10:15:56;;;;;;;2.45;1.65;;;;;;;;;;10410452;28;20034;-72
2022/02/11 10:21:01;;;;;;;2.70;1.30;;;;;;;;;;10439705;28;20045;-71
2022/02/11 10:26:10;;;;;;;1.88;1.00;;;;;;;;;;10409705;28;20044;-71
2022/02/11 10:31:14;;;;;;;1.30;1.00;;;;;;;;;;10406446;28;20049;-71
2022/02/11 10:36:18;;;;;;;1.60;1.13;;;;;;;;;;10420051;28;20086;-73
2022/02/11 10:41:43;;;;;;;1.80;1.57;;;;;;;;;;10410518;28;20313;-70
2022/02/11 10:46:47;;;;;;;1.85;1.00;;;;;;;;;;10395223;28;20132;-69
2022/02/11 10:51:51;;;;;;;2.67;1.60;;;;;;;;;;10400463;28;20049;-69
2022/02/11 10:56:57;;;;;;;3.42;1.58;;;;;;;;;;10393964;28;20045;-69
2022/02/11 11:02:00;;;;;;;1.80;1.40;;;;;;;;;;10400040;28;20041;-70
2022/02/11 11:07:05;;;;;;;3.30;1.70;;;;;;;;;;10396098;28;20048;-70
2022/02/11 11:12:10;;;;;;;1.83;1.20;;;;;;;;;;10416501;28;20106;-70
2022/02/11 11:17:16;;;;;;;1.35;1.00;;;;;;;;;;10396466;28;20236;-71
2022/02/11 11:22:22;;;;;;;0.63;0.63;;;;;;;;;;10397896;28;20045;-71
2022/02/11 11:27:43;;;;;;;2.40;1.50;;;;;;;;;;10395277;28;20625;-70
2022/02/11 11:33:00;;;;;;;1.73;1.10;;;;;;;;;;10400866;28;20119;-70
2022/02/11 11:38:10;;;;;;;3.60;1.40;;;;;;;;;;10394648;28;20065;-69
2022/02/11 11:43:15;;;;;;;1.08;1.08;;;;;;;;;;10396646;28;20045;-70
2022/02/11 11:48:19;;;;;;;2.05;0.68;;;;;;;;;;10406001;28;20075;-70
2022/02/11 11:53:26;;;;;;;2.63;1.27;;;;;;;;;;10405924;28;20060;-70
2022/02/11 11:58:34;;;;;;;4.55;1.55;;;;;;;;;;10396224;28;20034;-69
2022/02/11 12:03:57;;;;;;;2.28;1.50;;;;;;;;;;10395105;28;20103;-70
2022/02/11 12:09:02;;;;;;;1.70;1.60;;;;;;;;;;10392300;28;20044;-71
2022/02/11 12:14:07;;;;;;;0.68;0.47;;;;;;;;;;10394257;28;20489;-71
2022/02/11 12:19:10;;;;;;;1.48;0.80;;;;;;;;;;10397331;28;20099;-70
2022/02/11 12:29:34;;;;;;;2.08;1.50;;;;;;;;;;10393199;28;20033;-72
2022/02/11 12:34:37;;;;;;;3.72;1.45;;;;;;;;;;10396473;28;20095;-72
2022/02/11 12:39:40;;;;;;;1.23;0.98;;;;;;;;;;10394108;28;20064;-71
2022/02/11 12:44:46;;;;;;;2.78;1.10;;;;;;;;;;10394440;28;20397;-71
2022/02/11 12:49:51;;;;;;;2.20;1.45;;;;;;;;;;10390921;28;20141;-70
2022/02/11 12:55:01;;;;;;;1.40;1.00;;;;;;;;;;10386695;28;20245;-70
2022/02/11 13:00:07;;;;;;;4.75;1.35;;;;;;;;;;10398920;28;20422;-70
2022/02/11 13:05:11;;;;;;;0.65;0.43;;;;;;;;;;10390326;28;20099;-71
2022/02/11 13:10:22;;;;;;;3.65;1.10;;;;;;;;;;10394466;28;20098;-70
2022/02/11 13:15:28;;;;;;;3.25;0.90;;;;;;;;;;10390037;28;20392;-71
2022/02/11 13:20:35;;;;;;;1.17;0.82;;;;;;;;;;10394719;28;20144;-71
2022/02/11 13:25:39;;;;;;;1.48;0.57;;;;;;;;;;10393855;28;20048;-71
2022/02/11 13:30:46;;;;;;;4.60;0.70;;;;;;;;;;10392598;28;20049;-70
2022/02/11 13:35:50;;;;;;;1.92;0.77;;;;;;;;;;10407838;28;20405;-72
2022/02/11 13:40:54;;;;;;;0.98;0.60;;;;;;;;;;10399335;28;20045;-71
2022/02/11 13:46:02;;;;;;;2.25;0.75;;;;;;;;;;10412470;28;20563;-72
2022/02/11 13:51:06;;;;;;;0.38;0.38;;;;;;;;;;10398172;28;20044;-71
2022/02/11 13:56:10;;;;;;;2.10;0.55;;;;;;;;;;10390836;28;20156;-71
2022/02/11 14:01:27;;;;;;;0.98;0.38;;;;;;;;;;10401705;28;20423;-71
2022/02/11 14:06:36;;;;;;;0.87;0.60;;;;;;;;;;10426405;22;20405;-69
2022/02/11 14:11:40;;;;;;;0.30;0.30;;;;;;;;;;10471794;28;20058;-69
2022/02/11 14:16:44;;;;;;;2.28;0.63;;;;;;;;;;10475181;28;20049;-68
2022/02/11 14:21:47;;;;;;;0.40;0.40;;;;;;;;;;10446556;28;20104;-69
2022/02/11 14:26:50;;;;;;;1.93;0.53;;;;;;;;;;10439203;28;20355;-69
2022/02/11 14:31:55;;;;;;;1.15;0.43;;;;;;;;;;10444900;28;20045;-68
2022/02/11 14:36:59;;;;;;;0.67;0.40;;;;;;;;;;10436474;28;20116;-67
2022/02/11 14:42:02;;;;;;;3.33;0.53;;;;;;;;;;10441048;28;20061;-67
2022/02/11 14:47:08;;;;;;;1.17;0.67;;;;;;;;;;10448009;28;20048;-69
2022/02/11 14:52:14;;;;;;;2.40;0.68;;;;;;;;;;10452613;28;20455;-69
2022/02/11 14:57:18;;;;;;;0.90;0.55;;;;;;;;;;10440546;28;20040;-68
2022/02/11 15:02:22;;;;;;;1.80;0.80;;;;;;;;;;10464005;28;20244;-68
2022/02/11 15:07:26;;;;;;;1.70;0.80;;;;;;;;;;10440615;28;20090;-66
2022/02/11 15:12:29;;;;;;;3.20;0.80;;;;;;;;;;10443863;28;20788;-68
2022/02/11 15:17:33;;;;;;;2.42;1.10;;;;;;;;;;10445441;28;20035;-68
2022/02/11 15:22:35;;;;;;;;;;;;;;;;;;10443267;28;20040;-68
2022/02/11 15:27:39;;;;;;;2.03;0.90;;;;;;;;;;10435320;28;19925;-68
2022/02/11 15:32:43;;;;;;;1.57;0.77;;;;;;;;;;10439215;28;20511;-68
2022/02/11 15:37:46;;;;;;;4.37;1.53;;;;;;;;;;10441502;28;20044;-68
2022/02/11 15:42:50;;;;;;;1.27;0.60;;;;;;;;;;10438782;28;20040;-68
2022/02/11 15:47:55;;;;;;;1.20;0.60;;;;;;;;;;10441387;28;20041;-68
2022/02/11 15:52:57;;;;;;;;;;;;;;;;;;10441008;28;20098;-68
2022/02/11 15:58:01;;;;;;;0.77;0.47;;;;;;;;;;10436764;28;19924;-68
2022/02/11 16:03:06;;;;;;;6.03;1.23;;;;;;;;;;10427716;28;20154;-67
2022/02/11 16:08:09;;;;;;;;;;;;;;;;;;10429027;28;20041;-67
2022/02/11 16:13:12;;;;;;;0.63;0.40;;;;;;;;;;10435539;28;19956;-69
2022/02/11 16:18:16;;;;;;;1.67;0.80;;;;;;;;;;10433062;28;20488;-66
2022/02/11 16:23:21;;;;;;;6.33;1.57;;;;;;;;;;10433675;28;20058;-67
2022/02/11 16:28:24;;;;;;;1.70;0.80;;;;;;;;;;10440441;28;20475;-66
2022/02/11 16:33:28;;;;;;;3.23;1.33;;;;;;;;;;10437451;28;20041;-67
2022/02/11 16:38:32;;;;;;;4.03;1.43;;;;;;;;;;10433848;28;20066;-68
2022/02/11 16:43:35;;;;;;;1.53;1.00;;;;;;;;;;10436859;28;20060;-67
2022/02/11 16:48:39;;;;;;;5.23;1.00;;;;;;;;;;10447097;28;20049;-68
2022/02/11 16:53:42;;;;;;;;;;;;;;;;;;10442365;28;20159;-68
2022/02/11 16:58:45;;;;;;;1.87;1.17;;;;;;;;;;10438437;28;19927;-68
2022/02/11 17:03:52;;;;;;;0.80;0.52;;;;;;;;;;10440560;28;20059;-68
2022/02/11 17:08:58;;;;;;;0.73;0.20;;;;;;;;;;10441286;28;20297;-68
2022/02/11 17:14:01;;;;;;;1.53;0.87;;;;;;;;;;10436015;28;20037;-69
2022/02/11 17:19:06;;;;;;;12.25;1.02;;;;;;;;;;10437503;28;20033;-68
2022/02/11 17:24:14;;;;;;;;;;;;;;;;;;10444293;28;20079;-68
2022/02/11 17:29:18;;;;;;;2.47;0.93;;;;;;;;;;10445628;28;19921;-67
2022/02/11 17:34:22;;;;;;;1.90;1.00;;;;;;;;;;10448855;28;20049;-68
2022/02/11 17:39:31;;;;;;;;;;;;;;;;;;10446813;28;20060;-69
2022/02/11 17:44:34;;;;;;;3.40;1.00;;;;;;;;;;10446815;28;19924;-69
2022/02/11 17:49:38;;;;;;;3.00;1.33;;;;;;;;;;10447825;28;20130;-68
2022/02/11 17:54:41;;;;;;;;;;;;;;;;;;10444127;28;20029;-68
2022/02/11 17:59:44;;;;;;;0.27;0.27;;;;;;;;;;10437410;28;19925;-69
2022/02/11 18:04:49;;;;;;;1.40;0.50;;;;;;;;;;10442920;28;20036;-67
2022/02/11 18:09:52;;;;;;;2.63;1.70;;;;;;;;;;10440499;28;20033;-68
2022/02/11 18:14:55;;;;;;;2.93;1.53;;;;;;;;;;10442006;28;20045;-69
2022/02/11 18:20:00;;;;;;;2.17;1.10;;;;;;;;;;10436578;28;20642;-67
2022/02/11 18:25:04;;;;;;;1.73;0.60;;;;;;;;;;10439526;28;20040;-68
2022/02/11 18:30:07;;;;;;;8.83;1.57;;;;;;;;;;10433461;28;20037;-69
2022/02/11 18:35:12;;;;;;;7.35;1.50;;;;;;;;;;10446714;28;20033;-69
2022/02/11 18:40:15;;;;;;;2.57;1.27;;;;;;;;;;10434047;28;20107;-68
2022/02/11 18:45:18;;;;;;;1.60;1.17;;;;;;;;;;10449979;28;20563;-69
2022/02/11 18:50:23;;;;;;;2.57;0.80;;;;;;;;;;10448054;28;20033;-68
2022/02/11 18:55:26;;;;;;;;;;;;;;;;;;10444707;28;20053;-68
2022/02/11 19:00:29;;;;;;;2.50;1.27;;;;;;;;;;10438730;28;19959;-69
2022/02/11 19:05:34;;;;;;;2.47;1.37;;;;;;;;;;10438426;28;20043;-67
2022/02/11 19:10:37;;;;;;;3.90;0.53;;;;;;;;;;10452098;28;20467;-68
2022/02/11 19:15:41;;;;;;;1.85;0.80;;;;;;;;;;10436507;28;20037;-70
2022/02/11 19:20:45;;;;;;;2.50;0.90;;;;;;;;;;10440671;28;20029;-71
2022/02/11 19:25:49;;;;;;;3.67;1.20;;;;;;;;;;10446889;28;20032;-68
2022/02/11 19:30:52;;;;;;;4.43;1.80;;;;;;;;;;10440006;28;20033;-67
2022/02/11 19:35:57;;;;;;;3.80;1.97;;;;;;;;;;10453993;28;20017;-70
2022/02/11 19:41:00;;;;;;;4.97;1.70;;;;;;;;;;10483571;28;20037;-69
2022/02/11 19:46:03;;;;;;;3.27;1.30;;;;;;;;;;10444884;28;20029;-69
2022/02/11 19:51:09;;;;;;;2.10;1.10;;;;;;;;;;10435069;28;20033;-68
2022/02/11 19:56:33;;;;;;;6.13;1.60;;;;;;;;;;10435040;28;20029;-68
2022/02/11 20:01:37;;;;;;;5.70;1.73;;;;;;;;;;10435048;28;20114;-68
2022/02/11 20:06:41;;;;;;;0.30;0.23;;;;;;;;;;10433450;28;20065;-67
2022/02/11 20:11:46;;;;;;;3.37;1.73;;;;;;;;;;10433678;28;20032;-68
2022/02/11 20:16:49;;;;;;;2.47;0.90;;;;;;;;;;10443634;28;20041;-68
2022/02/11 20:21:54;;;;;;;5.70;1.87;;;;;;;;;;10435880;28;20049;-68
2022/02/11 20:26:57;;;;;;;4.73;1.87;;;;;;;;;;10435162;28;20515;-67
2022/02/11 20:32:01;;;;;;;10.03;2.43;;;;;;;;;;10425434;28;20072;-67
2022/02/11 20:37:06;;;;;;;5.47;2.83;;;;;;;;;;10425571;28;20082;-68
2022/02/11 20:42:10;;;;;;;7.80;2.60;;;;;;;;;;10434327;28;20490;-66
2022/02/11 20:47:16;;;;;;;6.00;2.27;;;;;;;;;;10431734;28;20041;-70
2022/02/11 20:52:20;;;;;;;5.33;2.20;;;;;;;;;;10435530;28;20037;-68
2022/02/11 20:57:23;;;;;;;8.47;2.63;;;;;;;;;;10433744;28;20535;-68
2022/02/11 21:02:26;;;;;;;8.37;3.13;;;;;;;;;;10435987;28;20033;-68
2022/02/11 21:07:31;;;;;;;15.50;3.13;;;;;;;;;;10424486;28;20095;-69
2022/02/11 21:12:34;;;;;;;;;;;;;;;;;;10432587;28;20136;-69
2022/02/11 21:17:37;;;;;;;6.83;1.83;;;;;;;;;;10428510;28;20376;-67
2022/02/11 21:22:43;;;;;;;4.60;1.87;;;;;;;;;;10434535;28;20044;-68
2022/02/11 21:27:47;;;;;;;5.63;2.27;;;;;;;;;;10432522;28;20365;-67
2022/02/11 21:32:51;;;;;;;9.32;3.42;;;;;;;;;;10444466;22;20117;-73
2022/02/11 21:37:56;;;;;;;3.03;1.77;;;;;;;;;;10398320;28;20415;-75
2022/02/11 21:42:59;;;;;;;7.50;3.10;;;;;;;;;;10397562;28;20068;-73
2022/02/11 21:48:02;;;;;;;3.90;2.23;;;;;;;;;;10401160;28;20037;-72
2022/02/11 21:53:08;;;;;;;2.97;1.30;;;;;;;;;;10393697;28;20107;-72
2022/02/11 21:58:11;;;;;;;5.33;1.80;;;;;;;;;;10386301;28;20053;-74
2022/02/11 22:03:14;;;;;;;2.30;1.50;;;;;;;;;;10391491;28;20565;-73
2022/02/11 22:08:19;;;;;;;2.00;1.17;;;;;;;;;;10397243;28;20060;-78
2022/02/11 22:13:22;;;;;;;7.20;1.23;;;;;;;;;;10394818;28;20040;-71
2022/02/11 22:18:25;;;;;;;6.03;2.57;;;;;;;;;;10395814;28;20099;-75
2022/02/11 22:23:29;;;;;;;8.67;3.23;;;;;;;;;;10395338;28;20033;-75
2022/02/11 22:28:32;;;;;;;3.23;1.53;;;;;;;;;;10392727;28;20045;-74
2022/02/11 22:33:36;;;;;;;6.07;2.50;;;;;;;;;;10398826;28;20053;-72
2022/02/11 22:38:40;;;;;;;6.38;2.58;;;;;;;;;;10401762;28;20124;-74
2022/02/11 22:43:45;;;;;;;6.27;2.43;;;;;;;;;;10397630;28;20042;-74
2022/02/11 22:54:07;;;;;;;5.30;2.27;;;;;;;;;;10408942;28;20045;-76
2022/02/11 22:59:12;;;;;;;8.30;2.47;;;;;;;;;;10415918;28;20041;-75
2022/02/11 23:04:15;;;;;;;6.15;2.65;;;;;;;;;;10410469;28;20052;-74
2022/02/11 23:09:19;;;;;;;5.70;2.47;;;;;;;;;;10408668;28;20053;-75
2022/02/11 23:14:25;;;;;;;;;;;;;;;;;;10409753;28;20041;-76
2022/02/11 23:19:28;;;;;;;3.10;1.80;;;;;;;;;;10414411;28;19956;-74
2022/02/11 23:24:33;;;;;;;2.10;0.97;;;;;;;;;;10415866;28;20056;-75
2022/02/11 23:29:38;;;;;;;;;;;;;;;;;;10416454;28;20049;-76
2022/02/11 23:34:41;;;;;;;5.67;2.40;;;;;;;;;;10418811;28;19964;-75
2022/02/11 23:39:46;;;;;;;4.37;1.77;;;;;;;;;;10397207;28;20065;-75
2022/02/11 23:44:50;;;;;;;8.53;2.47;;;;;;;;;;10415901;28;20037;-75
2022/02/11 23:49:53;;;;;;;10.63;2.70;;;;;;;;;;10418918;28;20061;-75
2022/02/11 23:54:58;;;;;;;5.53;2.53;;;;;;;;;;10422126;28;20036;-75
